sensor_id;sensor_type;location;lat;lon;timestamp;P1;durP1;ratioP1;P2;durP2;ratioP2
57191;SDS011;43052;52.588;13.396;2024-02-16T00:00:16;11.52;;;8.75;;
57191;SDS011;43052;52.588;13.396;2024-02-16T00:02:42;11.82;;;8.70;;
57191;SDS011;43052;52.588;13.396;2024-02-16T00:05:09;14.57;;;9.48;;
57191;SDS011;43052;52.588;13.396;2024-02-16T00:07:37;12.55;;;9.60;;
57191;SDS011;43052;52.588;13.396;2024-02-16T00:10:03;12.77;;;8.93;;
57191;SDS011;43052;52.588;13.396;2024-02-16T00:12:33;12.10;;;9.30;;
57191;SDS011;43052;52.588;13.396;2024-02-16T00:14:59;14.27;;;9.25;;
57191;SDS011;43052;52.588;13.396;2024-02-16T00:17:25;11.70;;;8.18;;
57191;SDS011;43052;52.588;13.396;2024-02-16T00:19:58;13.18;;;9.05;;
57191;SDS011;43052;52.588;13.396;2024-02-16T00:22:23;12.60;;;9.45;;
57191;SDS011;43052;52.588;13.396;2024-02-16T00:24:49;15.10;;;9.95;;
57191;SDS011;43052;52.588;13.396;2024-02-16T00:27:15;15.23;;;10.32;;
57191;SDS011;43052;52.588;13.396;2024-02-16T00:29:41;13.75;;;9.90;;
57191;SDS011;43052;52.588;13.396;2024-02-16T00:32:08;14.45;;;10.45;;
57191;SDS011;43052;52.588;13.396;2024-02-16T00:34:33;15.55;;;10.70;;
57191;SDS011;43052;52.588;13.396;2024-02-16T00:37:00;14.77;;;10.50;;
57191;SDS011;43052;52.588;13.396;2024-02-16T00:39:25;17.75;;;11.23;;
57191;SDS011;43052;52.588;13.396;2024-02-16T00:41:51;16.25;;;10.77;;
57191;SDS011;43052;52.588;13.396;2024-02-16T00:44:17;15.65;;;11.32;;
57191;SDS011;43052;52.588;13.396;2024-02-16T00:46:43;17.75;;;12.23;;
57191;SDS011;43052;52.588;13.396;2024-02-16T00:49:09;17.42;;;12.60;;
57191;SDS011;43052;52.588;13.396;2024-02-16T00:51:36;17.05;;;12.45;;
57191;SDS011;43052;52.588;13.396;2024-02-16T00:54:04;19.05;;;13.38;;
57191;SDS011;43052;52.588;13.396;2024-02-16T00:56:33;19.25;;;13.77;;
57191;SDS011;43052;52.588;13.396;2024-02-16T00:58:59;17.92;;;13.13;;
57191;SDS011;43052;52.588;13.396;2024-02-16T01:01:24;18.05;;;13.30;;
57191;SDS011;43052;52.588;13.396;2024-02-16T01:03:51;17.75;;;12.88;;
57191;SDS011;43052;52.588;13.396;2024-02-16T01:06:17;20.67;;;13.48;;
57191;SDS011;43052;52.588;13.396;2024-02-16T01:08:43;19.20;;;14.00;;
57191;SDS011;43052;52.588;13.396;2024-02-16T01:11:09;19.10;;;13.13;;
57191;SDS011;43052;52.588;13.396;2024-02-16T01:13:34;21.98;;;14.52;;
57191;SDS011;43052;52.588;13.396;2024-02-16T01:16:00;21.48;;;13.43;;
57191;SDS011;43052;52.588;13.396;2024-02-16T01:18:25;21.48;;;14.23;;
57191;SDS011;43052;52.588;13.396;2024-02-16T01:20:53;20.13;;;13.43;;
57191;SDS011;43052;52.588;13.396;2024-02-16T01:23:19;21.25;;;13.82;;
57191;SDS011;43052;52.588;13.396;2024-02-16T01:25:45;19.67;;;13.55;;
57191;SDS011;43052;52.588;13.396;2024-02-16T01:28:11;21.25;;;14.23;;
57191;SDS011;43052;52.588;13.396;2024-02-16T01:30:38;19.45;;;14.32;;
57191;SDS011;43052;52.588;13.396;2024-02-16T01:33:04;22.67;;;14.80;;
57191;SDS011;43052;52.588;13.396;2024-02-16T01:35:31;19.50;;;13.73;;
57191;SDS011;43052;52.588;13.396;2024-02-16T01:37:59;20.33;;;14.20;;
57191;SDS011;43052;52.588;13.396;2024-02-16T01:40:26;21.80;;;14.65;;
57191;SDS011;43052;52.588;13.396;2024-02-16T01:42:53;19.67;;;13.98;;
57191;SDS011;43052;52.588;13.396;2024-02-16T01:45:18;22.75;;;14.23;;
57191;SDS011;43052;52.588;13.396;2024-02-16T01:47:44;19.88;;;13.73;;
57191;SDS011;43052;52.588;13.396;2024-02-16T01:50:12;20.52;;;14.07;;
57191;SDS011;43052;52.588;13.396;2024-02-16T01:52:40;21.02;;;13.75;;
57191;SDS011;43052;52.588;13.396;2024-02-16T01:55:08;20.70;;;15.05;;
57191;SDS011;43052;52.588;13.396;2024-02-16T01:57:38;22.13;;;14.02;;
57191;SDS011;43052;52.588;13.396;2024-02-16T02:00:04;21.33;;;13.88;;
57191;SDS011;43052;52.588;13.396;2024-02-16T02:02:36;20.65;;;13.45;;
57191;SDS011;43052;52.588;13.396;2024-02-16T02:05:02;20.55;;;14.10;;
57191;SDS011;43052;52.588;13.396;2024-02-16T02:07:29;19.42;;;13.68;;
57191;SDS011;43052;52.588;13.396;2024-02-16T02:09:54;22.05;;;15.10;;
57191;SDS011;43052;52.588;13.396;2024-02-16T02:12:20;19.05;;;13.15;;
57191;SDS011;43052;52.588;13.396;2024-02-16T02:14:46;19.02;;;13.57;;
57191;SDS011;43052;52.588;13.396;2024-02-16T02:17:12;18.65;;;13.30;;
57191;SDS011;43052;52.588;13.396;2024-02-16T02:19:38;21.30;;;14.48;;
57191;SDS011;43052;52.588;13.396;2024-02-16T02:22:03;19.40;;;13.73;;
57191;SDS011;43052;52.588;13.396;2024-02-16T02:24:29;20.27;;;14.00;;
57191;SDS011;43052;52.588;13.396;2024-02-16T02:26:55;23.55;;;14.75;;
57191;SDS011;43052;52.588;13.396;2024-02-16T02:29:22;23.77;;;14.27;;
57191;SDS011;43052;52.588;13.396;2024-02-16T02:31:48;22.13;;;14.55;;
57191;SDS011;43052;52.588;13.396;2024-02-16T02:34:13;24.73;;;16.67;;
57191;SDS011;43052;52.588;13.396;2024-02-16T02:36:40;25.90;;;15.68;;
57191;SDS011;43052;52.588;13.396;2024-02-16T02:39:31;23.02;;;15.85;;
57191;SDS011;43052;52.588;13.396;2024-02-16T02:41:57;27.52;;;17.60;;
57191;SDS011;43052;52.588;13.396;2024-02-16T02:44:26;26.35;;;16.52;;
57191;SDS011;43052;52.588;13.396;2024-02-16T02:46:51;23.55;;;15.68;;
57191;SDS011;43052;52.588;13.396;2024-02-16T02:49:17;26.23;;;17.17;;
57191;SDS011;43052;52.588;13.396;2024-02-16T02:51:43;24.48;;;16.08;;
57191;SDS011;43052;52.588;13.396;2024-02-16T02:54:08;24.75;;;16.35;;
57191;SDS011;43052;52.588;13.396;2024-02-16T02:56:34;24.42;;;17.02;;
57191;SDS011;43052;52.588;13.396;2024-02-16T02:59:00;23.80;;;17.08;;
57191;SDS011;43052;52.588;13.396;2024-02-16T03:01:26;23.90;;;16.02;;
57191;SDS011;43052;52.588;13.396;2024-02-16T03:03:52;25.27;;;16.25;;
57191;SDS011;43052;52.588;13.396;2024-02-16T03:06:18;25.70;;;17.55;;
57191;SDS011;43052;52.588;13.396;2024-02-16T03:08:43;25.15;;;15.82;;
57191;SDS011;43052;52.588;13.396;2024-02-16T03:11:09;25.13;;;16.17;;
57191;SDS011;43052;52.588;13.396;2024-02-16T03:13:35;23.75;;;15.73;;
57191;SDS011;43052;52.588;13.396;2024-02-16T03:16:01;24.77;;;15.82;;
57191;SDS011;43052;52.588;13.396;2024-02-16T03:18:30;24.15;;;16.85;;
57191;SDS011;43052;52.588;13.396;2024-02-16T03:20:57;25.30;;;16.63;;
57191;SDS011;43052;52.588;13.396;2024-02-16T03:23:22;26.38;;;16.80;;
57191;SDS011;43052;52.588;13.396;2024-02-16T03:25:48;26.27;;;16.55;;
57191;SDS011;43052;52.588;13.396;2024-02-16T03:28:14;24.35;;;17.08;;
57191;SDS011;43052;52.588;13.396;2024-02-16T03:30:40;24.02;;;16.00;;
57191;SDS011;43052;52.588;13.396;2024-02-16T03:33:07;25.02;;;16.02;;
57191;SDS011;43052;52.588;13.396;2024-02-16T03:35:33;24.05;;;16.73;;
57191;SDS011;43052;52.588;13.396;2024-02-16T03:37:58;24.65;;;16.23;;
57191;SDS011;43052;52.588;13.396;2024-02-16T03:40:24;24.42;;;17.17;;
57191;SDS011;43052;52.588;13.396;2024-02-16T03:42:50;25.20;;;17.35;;
57191;SDS011;43052;52.588;13.396;2024-02-16T03:45:16;26.27;;;18.13;;
57191;SDS011;43052;52.588;13.396;2024-02-16T03:47:41;22.45;;;15.88;;
57191;SDS011;43052;52.588;13.396;2024-02-16T03:50:07;23.35;;;16.50;;
57191;SDS011;43052;52.588;13.396;2024-02-16T03:52:33;25.23;;;17.58;;
57191;SDS011;43052;52.588;13.396;2024-02-16T03:54:59;24.63;;;16.75;;
57191;SDS011;43052;52.588;13.396;2024-02-16T03:57:24;27.90;;;18.08;;
57191;SDS011;43052;52.588;13.396;2024-02-16T03:59:50;27.75;;;17.55;;
57191;SDS011;43052;52.588;13.396;2024-02-16T04:02:15;23.50;;;16.58;;
57191;SDS011;43052;52.588;13.396;2024-02-16T04:04:41;25.60;;;17.35;;
57191;SDS011;43052;52.588;13.396;2024-02-16T04:07:06;25.38;;;16.45;;
57191;SDS011;43052;52.588;13.396;2024-02-16T04:09:33;27.92;;;17.33;;
57191;SDS011;43052;52.588;13.396;2024-02-16T04:11:59;23.42;;;15.80;;
57191;SDS011;43052;52.588;13.396;2024-02-16T04:14:31;25.55;;;15.90;;
57191;SDS011;43052;52.588;13.396;2024-02-16T04:16:57;21.55;;;15.18;;
57191;SDS011;43052;52.588;13.396;2024-02-16T04:19:25;24.50;;;16.45;;
57191;SDS011;43052;52.588;13.396;2024-02-16T04:21:51;24.10;;;15.75;;
57191;SDS011;43052;52.588;13.396;2024-02-16T04:24:17;23.65;;;16.08;;
57191;SDS011;43052;52.588;13.396;2024-02-16T04:26:43;23.58;;;16.35;;
57191;SDS011;43052;52.588;13.396;2024-02-16T04:29:08;22.52;;;14.98;;
57191;SDS011;43052;52.588;13.396;2024-02-16T04:31:34;23.38;;;16.25;;
57191;SDS011;43052;52.588;13.396;2024-02-16T04:33:59;22.60;;;15.27;;
57191;SDS011;43052;52.588;13.396;2024-02-16T04:36:25;21.05;;;16.23;;
57191;SDS011;43052;52.588;13.396;2024-02-16T04:38:50;22.65;;;15.95;;
57191;SDS011;43052;52.588;13.396;2024-02-16T04:41:16;23.42;;;15.25;;
57191;SDS011;43052;52.588;13.396;2024-02-16T04:43:41;21.13;;;14.52;;
57191;SDS011;43052;52.588;13.396;2024-02-16T04:46:07;23.63;;;15.07;;
57191;SDS011;43052;52.588;13.396;2024-02-16T04:48:39;23.05;;;15.52;;
57191;SDS011;43052;52.588;13.396;2024-02-16T04:51:04;20.48;;;13.23;;
57191;SDS011;43052;52.588;13.396;2024-02-16T04:53:30;20.92;;;14.38;;
57191;SDS011;43052;52.588;13.396;2024-02-16T04:55:55;22.88;;;15.35;;
57191;SDS011;43052;52.588;13.396;2024-02-16T04:58:20;22.45;;;14.65;;
57191;SDS011;43052;52.588;13.396;2024-02-16T05:00:47;22.60;;;13.68;;
57191;SDS011;43052;52.588;13.396;2024-02-16T05:03:12;19.85;;;12.95;;
57191;SDS011;43052;52.588;13.396;2024-02-16T05:05:38;20.92;;;13.85;;
57191;SDS011;43052;52.588;13.396;2024-02-16T05:08:04;18.90;;;13.40;;
57191;SDS011;43052;52.588;13.396;2024-02-16T05:10:30;21.10;;;14.70;;
57191;SDS011;43052;52.588;13.396;2024-02-16T05:12:56;19.48;;;13.82;;
57191;SDS011;43052;52.588;13.396;2024-02-16T05:15:23;21.90;;;13.70;;
57191;SDS011;43052;52.588;13.396;2024-02-16T05:17:49;20.70;;;13.52;;
57191;SDS011;43052;52.588;13.396;2024-02-16T05:20:15;20.17;;;13.48;;
57191;SDS011;43052;52.588;13.396;2024-02-16T05:22:41;19.15;;;13.45;;
57191;SDS011;43052;52.588;13.396;2024-02-16T05:25:08;20.88;;;13.68;;
57191;SDS011;43052;52.588;13.396;2024-02-16T05:27:35;20.05;;;14.50;;
57191;SDS011;43052;52.588;13.396;2024-02-16T05:30:00;21.45;;;13.05;;
57191;SDS011;43052;52.588;13.396;2024-02-16T05:32:26;20.17;;;13.27;;
57191;SDS011;43052;52.588;13.396;2024-02-16T05:34:54;20.25;;;12.35;;
57191;SDS011;43052;52.588;13.396;2024-02-16T05:37:20;18.40;;;13.18;;
57191;SDS011;43052;52.588;13.396;2024-02-16T05:39:47;19.42;;;13.60;;
57191;SDS011;43052;52.588;13.396;2024-02-16T05:42:20;18.17;;;13.35;;
57191;SDS011;43052;52.588;13.396;2024-02-16T05:44:47;19.15;;;13.00;;
57191;SDS011;43052;52.588;13.396;2024-02-16T05:47:14;17.10;;;11.98;;
57191;SDS011;43052;52.588;13.396;2024-02-16T05:49:40;19.23;;;13.10;;
57191;SDS011;43052;52.588;13.396;2024-02-16T05:52:06;17.30;;;12.32;;
57191;SDS011;43052;52.588;13.396;2024-02-16T05:54:44;16.90;;;12.75;;
57191;SDS011;43052;52.588;13.396;2024-02-16T05:57:10;17.70;;;13.05;;
57191;SDS011;43052;52.588;13.396;2024-02-16T05:59:36;18.40;;;12.55;;
57191;SDS011;43052;52.588;13.396;2024-02-16T06:02:03;18.70;;;12.10;;
57191;SDS011;43052;52.588;13.396;2024-02-16T06:04:30;17.85;;;12.18;;
57191;SDS011;43052;52.588;13.396;2024-02-16T06:06:55;16.90;;;11.95;;
57191;SDS011;43052;52.588;13.396;2024-02-16T06:09:24;20.90;;;13.00;;
57191;SDS011;43052;52.588;13.396;2024-02-16T06:12:02;21.50;;;13.32;;
57191;SDS011;43052;52.588;13.396;2024-02-16T06:14:29;19.02;;;13.02;;
57191;SDS011;43052;52.588;13.396;2024-02-16T06:17:14;19.25;;;12.75;;
57191;SDS011;43052;52.588;13.396;2024-02-16T06:19:41;18.05;;;12.48;;
57191;SDS011;43052;52.588;13.396;2024-02-16T06:22:07;15.55;;;11.73;;
57191;SDS011;43052;52.588;13.396;2024-02-16T06:24:36;18.90;;;12.88;;
57191;SDS011;43052;52.588;13.396;2024-02-16T06:27:02;20.02;;;12.68;;
57191;SDS011;43052;52.588;13.396;2024-02-16T06:29:28;17.52;;;12.45;;
57191;SDS011;43052;52.588;13.396;2024-02-16T06:31:55;18.60;;;12.52;;
57191;SDS011;43052;52.588;13.396;2024-02-16T06:34:21;18.38;;;13.23;;
57191;SDS011;43052;52.588;13.396;2024-02-16T06:36:47;15.32;;;12.02;;
57191;SDS011;43052;52.588;13.396;2024-02-16T06:39:12;17.77;;;12.05;;
57191;SDS011;43052;52.588;13.396;2024-02-16T06:41:45;15.13;;;11.43;;
57191;SDS011;43052;52.588;13.396;2024-02-16T06:44:11;17.45;;;11.48;;
57191;SDS011;43052;52.588;13.396;2024-02-16T06:46:37;18.05;;;11.85;;
57191;SDS011;43052;52.588;13.396;2024-02-16T06:49:03;17.33;;;11.57;;
57191;SDS011;43052;52.588;13.396;2024-02-16T06:51:28;17.85;;;11.15;;
57191;SDS011;43052;52.588;13.396;2024-02-16T06:53:54;16.02;;;11.60;;
57191;SDS011;43052;52.588;13.396;2024-02-16T06:56:20;17.90;;;11.35;;
57191;SDS011;43052;52.588;13.396;2024-02-16T06:58:46;15.23;;;11.20;;
57191;SDS011;43052;52.588;13.396;2024-02-16T07:01:15;16.02;;;10.38;;
57191;SDS011;43052;52.588;13.396;2024-02-16T07:03:43;14.68;;;10.20;;
57191;SDS011;43052;52.588;13.396;2024-02-16T07:06:09;15.98;;;10.10;;
57191;SDS011;43052;52.588;13.396;2024-02-16T07:08:41;14.60;;;10.98;;
57191;SDS011;43052;52.588;13.396;2024-02-16T07:11:08;15.88;;;10.55;;
57191;SDS011;43052;52.588;13.396;2024-02-16T07:13:37;16.42;;;11.85;;
57191;SDS011;43052;52.588;13.396;2024-02-16T07:16:03;15.10;;;10.65;;
57191;SDS011;43052;52.588;13.396;2024-02-16T07:18:29;16.02;;;11.02;;
57191;SDS011;43052;52.588;13.396;2024-02-16T07:20:56;15.38;;;10.63;;
57191;SDS011;43052;52.588;13.396;2024-02-16T07:23:21;17.40;;;9.93;;
57191;SDS011;43052;52.588;13.396;2024-02-16T07:25:47;14.18;;;10.00;;
57191;SDS011;43052;52.588;13.396;2024-02-16T07:28:14;18.45;;;11.02;;
57191;SDS011;43052;52.588;13.396;2024-02-16T07:30:39;16.05;;;10.98;;
57191;SDS011;43052;52.588;13.396;2024-02-16T07:33:05;16.73;;;11.40;;
57191;SDS011;43052;52.588;13.396;2024-02-16T07:35:32;17.35;;;11.77;;
57191;SDS011;43052;52.588;13.396;2024-02-16T07:38:00;17.00;;;11.15;;
57191;SDS011;43052;52.588;13.396;2024-02-16T07:40:25;15.30;;;10.13;;
57191;SDS011;43052;52.588;13.396;2024-02-16T07:42:51;12.75;;;10.30;;
57191;SDS011;43052;52.588;13.396;2024-02-16T07:45:16;15.27;;;10.35;;
57191;SDS011;43052;52.588;13.396;2024-02-16T07:47:42;13.65;;;9.35;;
57191;SDS011;43052;52.588;13.396;2024-02-16T07:50:07;12.75;;;10.13;;
57191;SDS011;43052;52.588;13.396;2024-02-16T07:52:33;13.45;;;10.38;;
57191;SDS011;43052;52.588;13.396;2024-02-16T07:54:59;14.20;;;10.18;;
57191;SDS011;43052;52.588;13.396;2024-02-16T07:57:24;12.77;;;9.00;;
57191;SDS011;43052;52.588;13.396;2024-02-16T07:59:50;12.00;;;8.40;;
57191;SDS011;43052;52.588;13.396;2024-02-16T08:02:15;12.38;;;8.82;;
57191;SDS011;43052;52.588;13.396;2024-02-16T08:04:43;13.07;;;9.35;;
57191;SDS011;43052;52.588;13.396;2024-02-16T08:07:11;10.50;;;8.40;;
57191;SDS011;43052;52.588;13.396;2024-02-16T08:09:37;12.07;;;8.70;;
57191;SDS011;43052;52.588;13.396;2024-02-16T08:12:02;10.77;;;7.88;;
57191;SDS011;43052;52.588;13.396;2024-02-16T08:14:30;11.20;;;8.68;;
57191;SDS011;43052;52.588;13.396;2024-02-16T08:16:57;11.18;;;8.50;;
57191;SDS011;43052;52.588;13.396;2024-02-16T08:19:23;12.73;;;9.02;;
57191;SDS011;43052;52.588;13.396;2024-02-16T08:21:48;10.93;;;8.55;;
57191;SDS011;43052;52.588;13.396;2024-02-16T08:24:14;10.95;;;8.38;;
57191;SDS011;43052;52.588;13.396;2024-02-16T08:26:39;14.38;;;8.80;;
57191;SDS011;43052;52.588;13.396;2024-02-16T08:29:05;10.10;;;8.02;;
57191;SDS011;43052;52.588;13.396;2024-02-16T08:31:30;11.02;;;6.43;;
57191;SDS011;43052;52.588;13.396;2024-02-16T08:33:56;10.73;;;8.43;;
57191;SDS011;43052;52.588;13.396;2024-02-16T08:36:21;11.32;;;8.38;;
57191;SDS011;43052;52.588;13.396;2024-02-16T08:38:53;10.52;;;8.07;;
57191;SDS011;43052;52.588;13.396;2024-02-16T08:41:19;9.82;;;8.43;;
57191;SDS011;43052;52.588;13.396;2024-02-16T08:43:44;12.15;;;8.25;;
57191;SDS011;43052;52.588;13.396;2024-02-16T08:46:09;11.05;;;8.75;;
57191;SDS011;43052;52.588;13.396;2024-02-16T08:48:35;10.48;;;7.88;;
57191;SDS011;43052;52.588;13.396;2024-02-16T08:51:00;9.80;;;8.05;;
57191;SDS011;43052;52.588;13.396;2024-02-16T08:53:28;11.00;;;7.57;;
57191;SDS011;43052;52.588;13.396;2024-02-16T08:55:53;12.68;;;7.20;;
57191;SDS011;43052;52.588;13.396;2024-02-16T08:58:18;10.93;;;8.13;;
57191;SDS011;43052;52.588;13.396;2024-02-16T09:00:44;9.23;;;7.18;;
57191;SDS011;43052;52.588;13.396;2024-02-16T09:03:10;12.13;;;7.78;;
57191;SDS011;43052;52.588;13.396;2024-02-16T09:05:35;9.93;;;7.22;;
57191;SDS011;43052;52.588;13.396;2024-02-16T09:08:01;10.15;;;7.60;;
57191;SDS011;43052;52.588;13.396;2024-02-16T09:10:28;11.15;;;8.25;;
57191;SDS011;43052;52.588;13.396;2024-02-16T09:12:53;11.05;;;8.02;;
57191;SDS011;43052;52.588;13.396;2024-02-16T09:15:19;10.85;;;8.27;;
57191;SDS011;43052;52.588;13.396;2024-02-16T09:17:44;11.02;;;8.27;;
57191;SDS011;43052;52.588;13.396;2024-02-16T09:20:10;10.45;;;8.48;;
57191;SDS011;43052;52.588;13.396;2024-02-16T09:22:36;12.50;;;8.27;;
57191;SDS011;43052;52.588;13.396;2024-02-16T09:25:02;11.52;;;8.10;;
57191;SDS011;43052;52.588;13.396;2024-02-16T09:27:28;10.93;;;7.45;;
57191;SDS011;43052;52.588;13.396;2024-02-16T09:29:53;10.77;;;7.82;;
57191;SDS011;43052;52.588;13.396;2024-02-16T09:32:19;10.35;;;7.80;;
57191;SDS011;43052;52.588;13.396;2024-02-16T09:34:44;12.38;;;8.20;;
57191;SDS011;43052;52.588;13.396;2024-02-16T09:37:10;10.30;;;7.75;;
57191;SDS011;43052;52.588;13.396;2024-02-16T09:39:37;10.77;;;7.88;;
57191;SDS011;43052;52.588;13.396;2024-02-16T09:42:02;10.35;;;7.32;;
57191;SDS011;43052;52.588;13.396;2024-02-16T09:44:28;9.77;;;7.30;;
57191;SDS011;43052;52.588;13.396;2024-02-16T09:46:55;9.43;;;7.20;;
57191;SDS011;43052;52.588;13.396;2024-02-16T09:49:22;12.32;;;7.53;;
57191;SDS011;43052;52.588;13.396;2024-02-16T09:51:47;10.98;;;8.32;;
57191;SDS011;43052;52.588;13.396;2024-02-16T09:54:13;37.47;;;26.85;;
57191;SDS011;43052;52.588;13.396;2024-02-16T09:56:39;19.20;;;13.45;;
57191;SDS011;43052;52.588;13.396;2024-02-16T09:59:04;12.43;;;8.15;;
57191;SDS011;43052;52.588;13.396;2024-02-16T10:01:30;9.35;;;6.53;;
57191;SDS011;43052;52.588;13.396;2024-02-16T10:04:07;9.32;;;6.40;;
57191;SDS011;43052;52.588;13.396;2024-02-16T10:06:33;9.95;;;6.93;;
57191;SDS011;43052;52.588;13.396;2024-02-16T10:09:10;8.52;;;6.80;;
57191;SDS011;43052;52.588;13.396;2024-02-16T10:11:36;8.90;;;6.03;;
57191;SDS011;43052;52.588;13.396;2024-02-16T10:14:04;8.32;;;6.57;;
57191;SDS011;43052;52.588;13.396;2024-02-16T10:16:29;7.50;;;5.28;;
57191;SDS011;43052;52.588;13.396;2024-02-16T10:18:56;7.63;;;5.15;;
57191;SDS011;43052;52.588;13.396;2024-02-16T10:21:29;8.98;;;5.40;;
57191;SDS011;43052;52.588;13.396;2024-02-16T10:24:21;8.88;;;5.30;;
57191;SDS011;43052;52.588;13.396;2024-02-16T10:26:46;7.70;;;4.70;;
57191;SDS011;43052;52.588;13.396;2024-02-16T10:29:11;7.70;;;5.10;;
57191;SDS011;43052;52.588;13.396;2024-02-16T10:31:38;5.93;;;4.25;;
57191;SDS011;43052;52.588;13.396;2024-02-16T10:34:04;7.43;;;4.68;;
57191;SDS011;43052;52.588;13.396;2024-02-16T10:36:31;8.65;;;6.15;;
57191;SDS011;43052;52.588;13.396;2024-02-16T10:38:58;7.90;;;6.25;;
57191;SDS011;43052;52.588;13.396;2024-02-16T10:44:22;7.47;;;4.70;;
57191;SDS011;43052;52.588;13.396;2024-02-16T10:46:48;8.77;;;7.05;;
57191;SDS011;43052;52.588;13.396;2024-02-16T10:49:15;7.53;;;4.93;;
57191;SDS011;43052;52.588;13.396;2024-02-16T10:51:42;9.70;;;4.78;;
57191;SDS011;43052;52.588;13.396;2024-02-16T10:54:11;8.43;;;5.07;;
57191;SDS011;43052;52.588;13.396;2024-02-16T10:56:40;7.72;;;5.78;;
57191;SDS011;43052;52.588;13.396;2024-02-16T10:59:07;10.98;;;7.43;;
57191;SDS011;43052;52.588;13.396;2024-02-16T11:01:38;8.13;;;5.15;;
57191;SDS011;43052;52.588;13.396;2024-02-16T11:04:05;8.80;;;5.57;;
57191;SDS011;43052;52.588;13.396;2024-02-16T11:06:44;9.07;;;4.97;;
57191;SDS011;43052;52.588;13.396;2024-02-16T11:09:10;8.32;;;4.90;;
57191;SDS011;43052;52.588;13.396;2024-02-16T11:11:36;8.52;;;5.40;;
57191;SDS011;43052;52.588;13.396;2024-02-16T11:14:02;7.57;;;5.18;;
57191;SDS011;43052;52.588;13.396;2024-02-16T11:16:28;7.57;;;4.78;;
57191;SDS011;43052;52.588;13.396;2024-02-16T11:18:55;8.48;;;5.13;;
57191;SDS011;43052;52.588;13.396;2024-02-16T11:21:21;9.02;;;5.45;;
57191;SDS011;43052;52.588;13.396;2024-02-16T11:24:13;7.38;;;5.40;;
57191;SDS011;43052;52.588;13.396;2024-02-16T11:26:42;7.38;;;4.93;;
57191;SDS011;43052;52.588;13.396;2024-02-16T11:29:09;7.60;;;4.72;;
57191;SDS011;43052;52.588;13.396;2024-02-16T11:31:35;10.52;;;5.35;;
57191;SDS011;43052;52.588;13.396;2024-02-16T11:34:01;8.65;;;5.57;;
57191;SDS011;43052;52.588;13.396;2024-02-16T11:36:26;7.95;;;5.07;;
57191;SDS011;43052;52.588;13.396;2024-02-16T11:38:56;7.97;;;4.97;;
57191;SDS011;43052;52.588;13.396;2024-02-16T11:41:22;6.60;;;4.90;;
57191;SDS011;43052;52.588;13.396;2024-02-16T11:43:48;6.82;;;4.75;;
57191;SDS011;43052;52.588;13.396;2024-02-16T11:46:14;9.27;;;5.28;;
57191;SDS011;43052;52.588;13.396;2024-02-16T11:48:43;8.75;;;5.68;;
57191;SDS011;43052;52.588;13.396;2024-02-16T11:51:09;6.70;;;4.50;;
57191;SDS011;43052;52.588;13.396;2024-02-16T11:53:42;9.90;;;5.55;;
57191;SDS011;43052;52.588;13.396;2024-02-16T11:56:20;7.15;;;4.78;;
57191;SDS011;43052;52.588;13.396;2024-02-16T11:59:26;7.63;;;4.95;;
57191;SDS011;43052;52.588;13.396;2024-02-16T12:01:53;7.43;;;4.63;;
57191;SDS011;43052;52.588;13.396;2024-02-16T12:04:30;6.90;;;4.65;;
57191;SDS011;43052;52.588;13.396;2024-02-16T12:07:02;10.60;;;8.95;;
57191;SDS011;43052;52.588;13.396;2024-02-16T12:09:30;10.55;;;6.38;;
57191;SDS011;43052;52.588;13.396;2024-02-16T12:11:58;6.72;;;4.40;;
57191;SDS011;43052;52.588;13.396;2024-02-16T12:14:23;8.95;;;5.60;;
57191;SDS011;43052;52.588;13.396;2024-02-16T12:16:56;7.00;;;4.63;;
57191;SDS011;43052;52.588;13.396;2024-02-16T12:19:29;7.63;;;5.30;;
57191;SDS011;43052;52.588;13.396;2024-02-16T12:21:55;5.88;;;4.10;;
57191;SDS011;43052;52.588;13.396;2024-02-16T12:24:37;6.18;;;4.40;;
57191;SDS011;43052;52.588;13.396;2024-02-16T12:27:23;7.43;;;4.20;;
57191;SDS011;43052;52.588;13.396;2024-02-16T12:30:12;5.65;;;3.90;;
57191;SDS011;43052;52.588;13.396;2024-02-16T12:32:43;5.88;;;4.03;;
57191;SDS011;43052;52.588;13.396;2024-02-16T12:35:12;5.60;;;3.83;;
57191;SDS011;43052;52.588;13.396;2024-02-16T12:37:38;6.05;;;4.25;;
57191;SDS011;43052;52.588;13.396;2024-02-16T12:40:04;6.25;;;4.03;;
57191;SDS011;43052;52.588;13.396;2024-02-16T12:42:32;6.78;;;3.80;;
57191;SDS011;43052;52.588;13.396;2024-02-16T12:45:03;8.52;;;4.28;;
57191;SDS011;43052;52.588;13.396;2024-02-16T12:47:32;8.55;;;4.25;;
57191;SDS011;43052;52.588;13.396;2024-02-16T12:49:57;5.63;;;3.85;;
57191;SDS011;43052;52.588;13.396;2024-02-16T12:52:26;6.00;;;3.47;;
57191;SDS011;43052;52.588;13.396;2024-02-16T12:55:17;6.18;;;3.65;;
57191;SDS011;43052;52.588;13.396;2024-02-16T12:58:01;6.93;;;3.40;;
57191;SDS011;43052;52.588;13.396;2024-02-16T13:06:59;4.50;;;3.20;;
57191;SDS011;43052;52.588;13.396;2024-02-16T13:09:37;5.18;;;3.28;;
57191;SDS011;43052;52.588;13.396;2024-02-16T13:12:03;5.53;;;3.35;;
57191;SDS011;43052;52.588;13.396;2024-02-16T13:14:29;5.00;;;3.10;;
57191;SDS011;43052;52.588;13.396;2024-02-16T13:16:55;6.10;;;3.10;;
57191;SDS011;43052;52.588;13.396;2024-02-16T13:19:20;5.50;;;3.33;;
57191;SDS011;43052;52.588;13.396;2024-02-16T13:21:46;4.78;;;3.35;;
57191;SDS011;43052;52.588;13.396;2024-02-16T13:24:11;5.78;;;3.30;;
57191;SDS011;43052;52.588;13.396;2024-02-16T13:26:37;4.45;;;2.75;;
57191;SDS011;43052;52.588;13.396;2024-02-16T13:29:02;4.60;;;2.60;;
57191;SDS011;43052;52.588;13.396;2024-02-16T13:31:28;6.15;;;2.60;;
57191;SDS011;43052;52.588;13.396;2024-02-16T13:33:54;4.68;;;2.80;;
57191;SDS011;43052;52.588;13.396;2024-02-16T13:36:20;6.82;;;3.08;;
57191;SDS011;43052;52.588;13.396;2024-02-16T13:38:45;4.57;;;2.72;;
57191;SDS011;43052;52.588;13.396;2024-02-16T13:41:11;3.47;;;2.45;;
57191;SDS011;43052;52.588;13.396;2024-02-16T13:43:36;4.47;;;2.70;;
57191;SDS011;43052;52.588;13.396;2024-02-16T13:46:02;6.10;;;3.03;;
57191;SDS011;43052;52.588;13.396;2024-02-16T13:48:34;3.30;;;2.30;;
57191;SDS011;43052;52.588;13.396;2024-02-16T13:51:02;4.05;;;2.50;;
57191;SDS011;43052;52.588;13.396;2024-02-16T13:54:02;9.20;;;7.95;;
57191;SDS011;43052;52.588;13.396;2024-02-16T13:56:35;4.15;;;2.60;;
57191;SDS011;43052;52.588;13.396;2024-02-16T13:59:14;3.60;;;2.58;;
57191;SDS011;43052;52.588;13.396;2024-02-16T14:01:46;4.78;;;2.80;;
57191;SDS011;43052;52.588;13.396;2024-02-16T14:04:13;6.00;;;2.65;;
57191;SDS011;43052;52.588;13.396;2024-02-16T14:06:40;8.30;;;2.50;;
57191;SDS011;43052;52.588;13.396;2024-02-16T14:09:05;3.38;;;2.40;;
57191;SDS011;43052;52.588;13.396;2024-02-16T14:11:36;4.82;;;2.60;;
57191;SDS011;43052;52.588;13.396;2024-02-16T14:14:02;4.82;;;2.70;;
57191;SDS011;43052;52.588;13.396;2024-02-16T14:16:28;5.90;;;3.10;;
57191;SDS011;43052;52.588;13.396;2024-02-16T14:18:55;3.85;;;2.63;;
57191;SDS011;43052;52.588;13.396;2024-02-16T14:21:22;6.28;;;2.55;;
57191;SDS011;43052;52.588;13.396;2024-02-16T14:23:48;6.07;;;2.65;;
57191;SDS011;43052;52.588;13.396;2024-02-16T14:26:13;5.20;;;2.78;;
57191;SDS011;43052;52.588;13.396;2024-02-16T14:28:39;6.82;;;2.60;;